Rush, New York
Current Conditions -  °F | °C
As of 11:54 PM on Monday 22 Dec 2014 (Local Time) from KROC Reporting Station
Light Rain Light Rain  
Wind Chill: 30°   Ceiling: 5000
Heat Index: 37°   Visibility: 10mi
Dew Point: 28°   Wind: 9mph
Humidity: 70%   Direction: 170°S
Pressure: 30.07"   Gusts: NA
Location:  43°N, 77.65°W
Report Text: KROC 230454Z 17008KT 10SM -RA BKN050 BKN070 OVC085 03/M02 A3007 RMK AO2 RAB17 SLP191 P0000 T00281022 400441028
Loading
Personal Weather Stations






























Interactive Weather Map New forecast layout! Learn more

10-Day Weather Forecast

Advertisements
Track Severe Weather on mobile